• Join FlightAware (Why Join?)
  • Login
  • US Flag 
07:26PM EDT


 

Airport Tracker/Info


-or-


 

Live Flight TrackerFlight Track Log ✈ DAL2352 ✈ 03-Jul-2013 ✈ KALB - KATL

Flight Track Log - Related Links

Times and Time Zones

All times are in EDT time to prevent confusion due to time zone crossing. See the DAL2352 flight status page for this flight to view local times or setup timezone preferences in your user account.

Time Position Orientation Groundspeed Altitude Reporting Facility
EDT Latitude Longitude Course Direction KTS MPH feet Rate Location/Type
06:22AM 42.7236 -73.8081 180° South 152 175 1,400  Level Boston Center
06:23AM 42.6836 -73.8439 213° Southwest 216 249 3,500 1,920 Climbing Boston Center
06:24AM 42.7347 -73.9183 313° West 246 283 5,900 2,280 Climbing Boston Center
06:25AM 42.4391 -74.2346 198° South  Level Estimated
06:25AM 42.7942 -73.9850 321° Northwest 264 304 8,600  Level Boston Center
06:26AM 42.3613 -74.3421 200° South  Level Estimated
06:26AM 42.8453 -74.0597 313° West 270 311 11,200  Level Boston Center
06:27AM 42.2835 -74.4493 180° South  Level Estimated
06:27AM 42.8003 -74.1381 232° Southwest 205 236 12,800  Level Boston Center
06:28AM 42.6981 -74.1464 183° South 274 315 14,100 1,500 Climbing Boston Center
06:29AM 42.5983 -74.1239 171° South 376 433 15,800 1,980 Climbing Boston Center
06:30AM 42.4758 -74.0953 170° South 411 473 18,100 1,860 Climbing Boston Center
06:31AM 42.3742 -74.0644 167° South 411 473 19,600 1,500 Climbing Boston Center
06:32AM 42.2558 -74.0333 169° South 424 488 21,100 1,500 Climbing Boston Center
06:33AM 42.1328 -74.0331 180° South 436 502 22,600 1,440 Climbing Boston Center
06:34AM 42.0217 -74.0833 199° South 419 482 24,000 1,440 Climbing Boston Center
06:36AM 41.7969 -74.2017 201° Southwest 430 495 26,800 1,500 Climbing New York Center
06:37AM 41.6831 -74.2514 198° South 430 495 28,400 1,320 Climbing New York Center
06:38AM 41.5942 -74.2939 200° South 430 495 29,500 1,140 Climbing New York Center
06:39AM 41.4781 -74.3542 201° Southwest 424 488 30,800 1,260 Climbing New York Center
06:40AM 41.3703 -74.4008 198° South 418 481 32,000 960 Climbing New York Center
06:41AM 41.2564 -74.4500 198° South 418 481 32,800 780 Climbing New York Center
06:42AM 41.1508 -74.4964 198° South 418 481 33,700 540 Climbing New York Center
06:43AM 41.0508 -74.5625 207° Southwest 413 475 34,000 120 Climbing New York Center
06:44AM 40.9683 -74.6594 222° Southwest 400 460 34,000  Level New York Center
06:45AM 40.8878 -74.7619 224° Southwest 400 460 34,000  Level New York Center
06:46AM 40.8114 -74.8672 226° Southwest 400 460 34,000  Level New York Center
06:47AM 40.7347 -74.9775 227° Southwest 405 466 34,000  Level New York Center
06:48AM 40.6639 -75.0881 230° Southwest 405 466 34,000  Level New York Center
06:49AM 40.5931 -75.2011 230° Southwest 405 466 34,000  Level New York Center
06:50AM 40.5200 -75.3111 229° Southwest 405 466 34,000  Level New York Center
06:51AM 40.4469 -75.4236 230° Southwest 410 472 34,000  Level New York Center
06:52AM 40.3758 -75.5333 230° Southwest 410 472 34,000  Level New York Center
06:53AM 40.3025 -75.6453 229° Southwest 410 472 34,000  Level New York Center
06:54AM 40.2292 -75.7544 229° Southwest 410 472 34,000  Level New York Center
06:56AM 40.1006 -75.9550 230° Southwest 411 473 34,000  Level Washington Center
06:57AM 40.0253 -76.0628 228° Southwest 411 473 34,000  Level Washington Center
06:58AM 39.9539 -76.1733 230° Southwest 411 473 34,000  Level Washington Center
06:59AM 39.8844 -76.2836 231° Southwest 406 467 34,000  Level Washington Center
07:00AM 39.8089 -76.3936 228° Southwest 406 467 34,000  Level Washington Center
07:01AM 39.7372 -76.5008 229° Southwest 406 467 34,000  Level Washington Center
07:02AM 39.6594 -76.6103 227° Southwest 411 473 34,000  Level Washington Center
07:03AM 39.5856 -76.7197 229° Southwest 411 473 34,000  Level Washington Center
07:04AM 39.5136 -76.8289 230° Southwest 411 473 34,000  Level Washington Center
07:05AM 39.4394 -76.9406 229° Southwest 411 473 34,000  Level Washington Center
07:06AM 39.3653 -77.0464 228° Southwest 411 473 34,000  Level Washington Center
07:07AM 39.2911 -77.1522 228° Southwest 411 473 34,000  Level Washington Center
07:08AM 39.2144 -77.2578 227° Southwest 411 473 34,000  Level Washington Center
07:09AM 39.1400 -77.3633 228° Southwest 411 473 34,000  Level Washington Center
07:10AM 39.0656 -77.4711 228° Southwest 411 473 34,000  Level Washington Center
07:11AM 38.9803 -77.5889 227° Southwest 411 473 34,000  Level Washington Center
07:12AM 38.9119 -77.6886 229° Southwest 416 479 34,000  Level Washington Center
07:13AM 38.8283 -77.8061 228° Southwest 410 472 34,000  Level Washington Center
07:14AM 38.7492 -77.9208 229° Southwest 420 483 34,000  Level Washington Center
07:15AM 38.6742 -78.0247 227° Southwest 414 476 34,000  Level Washington Center
07:16AM 38.5989 -78.1311 228° Southwest 407 468 34,000  Level Washington Center
07:17AM 38.5217 -78.2294 225° Southwest 407 468 34,000  Level Washington Center
07:18AM 38.4322 -78.3164 217° Southwest 407 468 34,000  Level Washington Center
07:19AM 38.3386 -78.3950 213° Southwest 407 468 34,000  Level Washington Center
07:20AM 38.2453 -78.4683 212° Southwest 407 468 34,000  Level Washington Center
07:21AM 38.1536 -78.5439 213° Southwest 407 468 34,000  Level Washington Center
07:22AM 38.0561 -78.6139 209° Southwest 401 461 34,000  Level Washington Center
07:23AM 37.9522 -78.6703 203° Southwest 401 461 34,000  Level Washington Center
07:24AM 37.8792 -78.7567 223° Southwest 401 461 34,000  Level Washington Center
07:25AM 37.8133 -78.8750 235° Southwest 396 456 34,000  Level Washington Center
07:26AM 37.7519 -78.9906 236° Southwest 408 470 34,000  Level Washington Center
07:27AM 37.6878 -79.1108 236° Southwest 414 476 34,000  Level Washington Center
07:28AM 37.6169 -79.2467 237° Southwest 420 483 34,000  Level Washington Center
07:29AM 37.5508 -79.3664 235° Southwest 420 483 34,000  Level Washington Center
07:30AM 37.4844 -79.4836 235° Southwest 425 489 34,000  Level Washington Center
07:31AM 37.4117 -79.6056 233° Southwest 425 489 34,000  Level Washington Center
07:32AM 37.3469 -79.7250 236° Southwest 431 496 34,000  Level Washington Center
07:33AM 37.2844 -79.8389 235° Southwest 426 490 34,000  Level Washington Center
07:34AM 37.2178 -79.9578 235° Southwest 419 482 34,000  Level Washington Center
07:36AM 37.0906 -80.1853 235° Southwest 410 472 34,000  Level Atlanta Center
07:37AM 37.0153 -80.3111 233° Southwest 419 482 34,000  Level Atlanta Center
07:38AM 36.9411 -80.4186 229° Southwest 419 482 34,000  Level Atlanta Center
07:39AM 36.8631 -80.5233 227° Southwest 414 476 34,000  Level Atlanta Center
07:40AM 36.7925 -80.6144 226° Southwest 414 476 34,000  Level Atlanta Center
07:41AM 36.7100 -80.7242 227° Southwest 399 459 34,000  Level Atlanta Center
07:42AM 36.6314 -80.8283 227° Southwest 407 468 34,000  Level Atlanta Center
07:43AM 36.5550 -80.9297 227° Southwest 407 468 34,000  Level Atlanta Center
07:44AM 36.4761 -81.0308 226° Southwest 407 468 34,000  Level Atlanta Center
07:45AM 36.4014 -81.1342 228° Southwest 407 468 34,000  Level Atlanta Center
07:46AM 36.3225 -81.2375 227° Southwest 407 468 34,000  Level Atlanta Center
07:47AM 36.2433 -81.3408 226° Southwest 413 475 34,000  Level Atlanta Center
07:48AM 36.1664 -81.4436 227° Southwest 407 468 34,000  Level Atlanta Center
07:49AM 36.0994 -81.5306 226° Southwest 407 468 34,000  Level Atlanta Center
07:50AM 36.0200 -81.6333 226° Southwest 412 474 34,000  Level Atlanta Center
07:51AM 35.9408 -81.7381 227° Southwest 403 464 34,000  Level Atlanta Center
07:52AM 35.8633 -81.8378 226° Southwest 410 472 34,000  Level Atlanta Center
07:53AM 35.7836 -81.9372 225° Southwest 403 464 34,000  Level Atlanta Center
07:54AM 35.7122 -82.0336 228° Southwest 397 457 34,000  Level Atlanta Center
07:55AM 35.6367 -82.1275 225° Southwest 392 451 34,000  Level Atlanta Center
07:56AM 35.5608 -82.2236 226° Southwest 387 445 34,000 -600 Level Atlanta Center
07:57AM 35.4872 -82.3144 225° Southwest 381 438 32,800 -1,440 Descending Atlanta Center
07:58AM 35.4153 -82.4053 226° Southwest 381 438 31,200 -1,560 Descending Atlanta Center
07:59AM 35.3478 -82.4983 228° Southwest 381 438 29,700 -1,500 Descending Atlanta Center
08:00AM 35.3261 -82.6158 257° West 354 407 28,300 -1,500 Descending Atlanta Center
08:01AM 35.3256 -82.7431 270° West 360 414 26,800 -1,560 Descending Atlanta Center
08:02AM 35.3161 -82.8653 265° West 373 429 25,200 -1,440 Descending Atlanta Center
08:03AM 35.2503 -82.9478 226° Southwest 337 388 24,000 -1,140 Descending Atlanta Center
08:04AM 35.1672 -83.0147 213° Southwest 320 368 23,000 -540 Descending Atlanta Center
08:05AM 35.0928 -83.0742 213° Southwest 327 376 23,000  Level Atlanta Center
08:06AM 35.0158 -83.1333 212° Southwest 327 376 23,000  Level Atlanta Center
08:07AM 34.9414 -83.1900 212° Southwest 332 382 23,000 -540 Level Atlanta Center
08:08AM 34.8644 -83.2514 213° Southwest 327 376 22,000 -1,020 Descending Atlanta Center
08:09AM 34.7917 -83.3078 212° Southwest 327 376 21,000 -540 Descending Atlanta Center
08:10AM 34.7192 -83.3642 213° Southwest 327 376 21,000 -240 Level Atlanta Center
08:11AM 34.6483 -83.4075 207° Southwest 320 368 20,600 -960 Descending Atlanta Center
08:12AM 34.5669 -83.3881 169° South 292 336 19,100 -1,080 Descending Atlanta Center
08:13AM 34.4853 -83.3583 163° South 293 337 18,500 -900 Descending Atlanta Center
08:14AM 34.4167 -83.4117 213° Southwest 264 304 17,300 -1,440 Descending Atlanta Center
08:15AM 34.3522 -83.4878 224° Southwest 285 328 15,700 -1,620 Descending Atlanta Center
08:16AM 34.2964 -83.5611 227° Southwest 297 342 14,100 -900 Descending Atlanta Center
08:17AM 34.2403 -83.6367 228° Southwest 304 350 14,000 -60 Descending Atlanta Center
08:18AM 34.1883 -83.7047 227° Southwest 290 334 14,000  Level Atlanta Center
08:19AM 34.1383 -83.7753 229° Southwest 290 334 14,000  Level Atlanta Center
08:20AM 34.0842 -83.8456 227° Southwest 285 328 14,000 -120 Level Atlanta Center
08:21AM 34.0333 -83.9000 222° Southwest 284 327 13,800 -540 Descending Atlanta TRACON
08:22AM 33.9667 -83.9667 220° Southwest 286 329 13,100 -720 Descending Atlanta TRACON
08:23AM 33.9167 -84.0167 220° Southwest 287 330 12,500 -600 Descending Atlanta TRACON
08:24AM 33.8500 -84.0833 220° Southwest 279 321 12,000 -240 Descending Atlanta TRACON
08:25AM 33.7833 -84.1333 212° Southwest 279 321 12,000  Level Atlanta TRACON
08:26AM 33.7333 -84.1833 220° Southwest 282 325 12,000  Level Atlanta TRACON
08:27AM 33.7333 -84.2833 270° West 295 339 12,000 -600 Level Atlanta TRACON
08:28AM 33.7333 -84.3833 270° West 265 305 10,900 -1,200 Descending Atlanta TRACON
08:29AM 33.7333 -84.4667 270° West 246 283 9,600 -1,380 Descending Atlanta TRACON
08:29AM 33.7333 -84.5333 270° West 238 274 8,300 -1,440 Descending Atlanta TRACON
08:30AM 33.7333 -84.6000 270° West 236 272 6,900 -1,440 Descending Atlanta TRACON
08:32AM 33.7333 -84.7000 270° West 234 269 5,300 -960 Descending Atlanta TRACON
08:32AM 33.7333 -84.7667 270° West 234 269 5,000 -180 Descending Atlanta TRACON
08:33AM 33.7333 -84.8500 270° West 235 270 5,000  Level Atlanta TRACON
08:34AM 33.6667 -84.8667 192° South 217 250 5,000  Level Atlanta TRACON
08:35AM 33.6500 -84.8167 112° Southeast 192 221 5,000  Level Atlanta TRACON
08:36AM 33.6500 -84.7500 90° East 178 205 5,000  Level Atlanta TRACON
08:38AM 33.6500 -84.7000 90° East 176 203 5,000 -420 Level Atlanta TRACON
08:39AM 33.6500 -84.6333 90° East 181 208 4,200 -900 Descending Atlanta TRACON
08:39AM 33.6500 -84.5833 90° East 179 206 3,300 -960 Descending Atlanta TRACON
08:40AM 33.6500 -84.5167 90° East 165 190 2,400 -900 Descending Atlanta TRACON